Calilegua, Argentina
Current Conditions -  °F | °C
As of 11:00 AM on Friday 28 Nov 2014 (Local Time) from SASJ Reporting Station
Scattered Clouds Scattered Clouds  
Wind Chill: 26°   Ceiling: Unl
Heat Index: 27°   Visibility: 6mi
Dew Point: 17°   Wind: 7mph
Humidity: 57%   Direction: 70°ENE
Pressure: 29.97"   Gusts: 18mph
Location:  23.78°S, 64.78°W
Report Text: SASJ 281400Z 07006G16KT 360V160 9999SCT030 26/17 Q1015
Loading
Personal Weather Stations






























Interactive Weather Map New forecast layout! Learn more

10-Day Weather Forecast

Advertisements
Track Severe Weather on mobile